createdAt,value
2018-12-14T00:00:15.360Z,22.87
2018-12-14T00:02:51.547Z,26.27
2018-12-14T00:05:27.968Z,27.40
2018-12-14T00:08:04.341Z,24.60
2018-12-14T00:10:40.728Z,25.90
2018-12-14T00:13:17.040Z,27.50
2018-12-14T00:15:54.516Z,26.93
2018-12-14T00:18:30.812Z,24.47
2018-12-14T00:21:07.221Z,23.40
2018-12-14T00:23:44.209Z,23.83
2018-12-14T00:26:20.607Z,26.73
2018-12-14T00:28:57.941Z,23.27
2018-12-14T00:31:35.565Z,26.00
2018-12-14T00:37:22.697Z,25.80
2018-12-14T00:40:10.185Z,26.30
2018-12-14T00:42:52.148Z,25.77
2018-12-14T00:45:34.567Z,26.87
2018-12-14T00:48:16.763Z,22.67
2018-12-14T00:50:54.824Z,24.97
2018-12-14T00:53:34.101Z,23.20
2018-12-14T00:56:12.250Z,23.87
2018-12-14T00:58:55.164Z,25.93
2018-12-14T01:04:24.716Z,25.73
2018-12-14T01:07:08.109Z,23.70
2018-12-14T01:09:51.341Z,23.53
2018-12-14T01:12:34.538Z,26.50
2018-12-14T01:15:19.491Z,23.73
2018-12-14T01:18:00.879Z,22.73
2018-12-14T01:20:42.494Z,26.67
2018-12-14T01:23:22.209Z,25.37
2018-12-14T01:26:00.034Z,25.50
2018-12-14T01:28:38.044Z,21.63
2018-12-14T01:31:37.117Z,24.13
2018-12-14T01:37:13.480Z,25.27
2018-12-14T01:39:53.966Z,23.97
2018-12-14T01:42:33.473Z,23.80
2018-12-14T01:45:12.103Z,23.87
2018-12-14T01:47:52.538Z,28.43
2018-12-14T01:50:33.253Z,27.20
2018-12-14T01:53:13.609Z,24.33
2018-12-14T01:55:51.422Z,24.83
2018-12-14T01:58:29.523Z,24.33
2018-12-14T02:01:08.578Z,29.07
2018-12-14T02:03:45.099Z,23.27
2018-12-14T02:06:21.058Z,24.13
2018-12-14T02:08:58.538Z,23.13
2018-12-14T02:11:39.232Z,21.83
2018-12-14T02:14:23.557Z,24.17
2018-12-14T02:17:05.198Z,21.53
2018-12-14T02:19:43.435Z,23.77
2018-12-14T02:22:29.469Z,21.47
2018-12-14T02:25:09.648Z,19.33
2018-12-14T02:27:56.536Z,16.80
2018-12-14T02:41:36.092Z,15.40
2018-12-14T02:53:26.805Z,13.47
2018-12-14T02:56:13.171Z,14.97
2018-12-14T02:58:51.897Z,16.70
2018-12-14T03:01:40.908Z,19.67
2018-12-14T03:04:19.823Z,15.50
2018-12-14T03:07:11.352Z,16.60
2018-12-14T03:13:18.687Z,14.33
2018-12-14T04:55:41.420Z,18.07
2018-12-14T05:03:14.296Z,18.90
2018-12-14T05:12:55.994Z,16.50
2018-12-14T05:15:29.856Z,16.37
2018-12-14T05:18:08.542Z,19.00
2018-12-14T05:20:46.378Z,16.60
2018-12-14T05:23:30.708Z,21.37
2018-12-14T05:26:21.747Z,20.10
2018-12-14T05:42:35.549Z,13.58
2018-12-14T05:54:55.325Z,20.50
2018-12-14T06:09:47.572Z,14.73
2018-12-14T06:12:27.912Z,14.57
2018-12-14T06:15:07.134Z,16.23
2018-12-14T06:17:47.542Z,12.83
2018-12-14T06:20:29.659Z,13.45
2018-12-14T06:23:46.350Z,15.03
2018-12-14T06:30:13.405Z,15.00
2018-12-14T06:32:55.964Z,12.40
2018-12-14T06:35:33.209Z,12.73
2018-12-14T06:38:11.240Z,13.97
2018-12-14T06:40:48.844Z,13.30
2018-12-14T06:46:29.090Z,12.50
2018-12-14T06:49:05.976Z,11.87
2018-12-14T06:51:43.479Z,14.83
2018-12-14T06:54:20.604Z,11.87
2018-12-14T06:56:56.622Z,12.33
2018-12-14T06:59:41.367Z,11.03
2018-12-14T07:02:18.215Z,13.07
2018-12-14T07:04:55.631Z,12.43
2018-12-14T07:08:03.036Z,11.40
2018-12-14T07:10:42.821Z,12.37
2018-12-14T07:13:30.530Z,12.13
2018-12-14T07:21:53.186Z,11.70
2018-12-14T07:24:30.075Z,12.37
2018-12-14T07:27:12.215Z,12.20
2018-12-14T07:29:52.479Z,11.30
2018-12-14T07:32:55.256Z,12.53
2018-12-14T07:35:33.852Z,11.00
2018-12-14T07:38:15.364Z,11.20
2018-12-14T07:40:53.977Z,10.13
2018-12-14T07:46:35.907Z,11.97
2018-12-14T07:49:16.575Z,10.70
2018-12-14T07:51:56.554Z,10.90
2018-12-14T07:54:53.002Z,11.60
2018-12-14T07:57:32.826Z,10.57
2018-12-14T08:00:16.096Z,12.73
2018-12-14T08:08:37.308Z,11.33
2018-12-14T08:12:11.657Z,11.20
2018-12-14T08:14:55.503Z,10.93
2018-12-14T08:20:30.729Z,11.03
2018-12-14T08:23:33.844Z,11.33
2018-12-14T08:29:35.533Z,11.50
2018-12-14T08:32:33.818Z,11.97
2018-12-14T08:35:12.469Z,11.70
2018-12-14T08:38:05.088Z,12.17
2018-12-14T08:40:45.281Z,11.97
2018-12-14T08:43:54.814Z,11.60
2018-12-14T08:46:34.750Z,12.43
2018-12-14T08:49:15.271Z,11.17
2018-12-14T08:54:36.202Z,11.50
2018-12-14T08:57:15.626Z,12.60
2018-12-14T08:59:57.759Z,12.40
2018-12-14T09:02:41.171Z,13.43
2018-12-14T09:05:18.205Z,12.20
2018-12-14T09:07:56.147Z,11.83
2018-12-14T09:10:35.066Z,12.23
2018-12-14T09:13:18.096Z,14.17
2018-12-14T09:15:56.299Z,11.90
2018-12-14T09:18:33.941Z,13.67
2018-12-14T09:21:21.677Z,13.40
2018-12-14T09:24:01.376Z,13.53
2018-12-14T09:26:38.181Z,14.33
2018-12-14T09:29:15.695Z,14.40
2018-12-14T09:31:53.188Z,13.80
2018-12-14T09:34:30.218Z,15.40
2018-12-14T09:37:07.452Z,15.00
2018-12-14T09:39:44.178Z,14.17
2018-12-14T09:42:22.770Z,15.70
2018-12-14T09:44:59.445Z,14.53
2018-12-14T09:47:39.760Z,14.27
2018-12-14T09:50:19.039Z,15.67
2018-12-14T09:52:55.589Z,16.03
2018-12-14T09:55:32.413Z,15.20
2018-12-14T09:58:09.222Z,15.83
2018-12-14T10:00:48.100Z,16.93
2018-12-14T10:03:28.892Z,16.23
2018-12-14T10:06:06.980Z,16.67
2018-12-14T10:08:45.893Z,16.93
2018-12-14T10:11:24.440Z,17.77
2018-12-14T10:14:04.607Z,17.40
2018-12-14T10:16:42.655Z,17.50
2018-12-14T10:19:21.270Z,17.97
2018-12-14T10:21:59.755Z,18.27
2018-12-14T10:24:38.134Z,18.60
2018-12-14T10:32:19.474Z,19.20
2018-12-14T10:34:59.274Z,17.30
2018-12-14T10:37:40.803Z,16.40
2018-12-14T10:40:19.591Z,17.07
2018-12-14T10:42:58.337Z,17.67
2018-12-14T10:45:37.103Z,18.63
2018-12-14T10:48:15.258Z,17.17
2018-12-14T10:50:53.705Z,18.43
2018-12-14T10:53:34.641Z,18.10
2018-12-14T10:56:13.753Z,17.07
2018-12-14T10:58:52.716Z,17.23
2018-12-14T11:01:33.220Z,19.80
2018-12-14T11:04:15.105Z,18.50
2018-12-14T11:06:53.736Z,18.13
2018-12-14T11:09:33.193Z,20.03
2018-12-14T11:12:11.878Z,17.23
2018-12-14T11:14:50.423Z,18.10
2018-12-14T11:17:30.474Z,18.50
2018-12-14T11:20:09.643Z,16.87
2018-12-14T11:22:48.171Z,17.60
2018-12-14T11:25:26.219Z,18.87
2018-12-14T11:28:05.827Z,17.83
2018-12-14T11:30:46.057Z,18.37
2018-12-14T11:33:40.390Z,17.37
2018-12-14T11:43:26.998Z,22.23
2018-12-14T11:46:04.037Z,20.90
2018-12-14T11:48:42.942Z,19.43
2018-12-14T11:51:29.853Z,21.77
2018-12-14T11:54:06.716Z,21.53
2018-12-14T11:56:43.155Z,20.57
2018-12-14T11:59:20.046Z,20.70
2018-12-14T12:01:57.180Z,20.07
2018-12-14T12:04:37.020Z,21.70
2018-12-14T12:07:14.304Z,20.50
2018-12-14T12:09:53.394Z,21.33
2018-12-14T12:12:32.082Z,21.73
2018-12-14T12:15:11.330Z,21.87
2018-12-14T12:17:49.531Z,20.80
2018-12-14T12:20:26.712Z,22.50
2018-12-14T12:23:03.927Z,20.77
2018-12-14T12:25:43.367Z,22.60
2018-12-14T12:28:23.420Z,23.20
2018-12-14T12:31:08.714Z,21.43
2018-12-14T12:33:46.123Z,21.80
2018-12-14T12:36:25.160Z,21.20
2018-12-14T12:39:04.716Z,21.77
2018-12-14T12:41:42.378Z,23.13
2018-12-14T12:44:20.274Z,20.10
2018-12-14T12:46:58.201Z,20.73
2018-12-14T12:49:39.819Z,22.10
2018-12-14T12:52:17.747Z,20.73
2018-12-14T12:54:55.736Z,20.70
2018-12-14T12:57:34.369Z,20.73
2018-12-14T13:00:12.227Z,22.50
2018-12-14T13:02:50.014Z,22.17
2018-12-14T13:05:34.691Z,22.40
2018-12-14T13:08:09.403Z,24.67
2018-12-14T13:10:48.410Z,21.80
2018-12-14T13:13:25.947Z,23.93
2018-12-14T13:16:04.200Z,24.00
2018-12-14T13:18:43.303Z,24.50
2018-12-14T13:21:21.428Z,25.50
2018-12-14T13:24:00.450Z,24.33
2018-12-14T13:26:38.845Z,28.40
2018-12-14T13:29:16.456Z,25.90
2018-12-14T13:31:56.186Z,28.47
2018-12-14T13:34:36.187Z,28.30
2018-12-14T13:37:12.352Z,29.37
2018-12-14T13:39:56.162Z,30.37
2018-12-14T13:42:34.357Z,28.07
2018-12-14T13:45:15.547Z,31.53
2018-12-14T13:47:53.342Z,30.33
2018-12-14T13:50:32.099Z,30.43
2018-12-14T13:53:10.357Z,29.83
2018-12-14T13:55:48.361Z,31.20
2018-12-14T13:58:26.535Z,29.90
2018-12-14T14:01:05.060Z,29.73
2018-12-14T14:09:18.743Z,28.93
2018-12-14T14:12:01.339Z,29.57
2018-12-14T14:14:41.887Z,27.07
2018-12-14T14:17:23.762Z,25.87
2018-12-14T14:20:02.244Z,25.60
2018-12-14T14:22:48.237Z,23.37
2018-12-14T14:25:27.795Z,23.57
2018-12-14T14:28:10.370Z,23.80
2018-12-14T14:30:49.161Z,24.70
2018-12-14T14:33:27.849Z,23.57
2018-12-14T14:36:05.949Z,24.10
2018-12-14T14:38:42.908Z,22.40
2018-12-14T14:41:20.798Z,21.97
2018-12-14T14:44:01.274Z,21.07
2018-12-14T14:46:39.685Z,22.53
2018-12-14T14:49:16.051Z,21.50
2018-12-14T14:51:52.532Z,20.60
2018-12-14T14:54:28.887Z,19.53
2018-12-14T14:57:04.944Z,21.80
2018-12-14T14:59:41.124Z,20.57
2018-12-14T15:02:17.018Z,21.07
2018-12-14T15:04:53.882Z,20.07
2018-12-14T15:07:32.410Z,21.53
2018-12-14T15:10:09.460Z,17.80
2018-12-14T15:12:47.843Z,22.27
2018-12-14T15:15:25.559Z,20.53
2018-12-14T15:18:02.725Z,21.47
2018-12-14T15:20:41.721Z,19.27
2018-12-14T15:23:19.286Z,17.87
2018-12-14T15:25:57.289Z,19.73
2018-12-14T15:28:35.435Z,19.30
2018-12-14T15:31:11.607Z,19.80
2018-12-14T15:33:47.745Z,17.20
2018-12-14T15:36:24.355Z,19.03
2018-12-14T15:39:00.501Z,17.10
2018-12-14T15:41:36.817Z,17.00
2018-12-14T15:44:13.294Z,18.10
2018-12-14T15:46:49.951Z,17.50
2018-12-14T15:49:26.888Z,18.00
2018-12-14T15:52:04.531Z,20.07
2018-12-14T15:54:41.503Z,17.07
2018-12-14T15:57:18.492Z,18.57
2018-12-14T15:59:55.138Z,17.50
2018-12-14T16:02:31.160Z,17.63
2018-12-14T16:05:08.805Z,17.10
2018-12-14T16:07:45.833Z,18.20
2018-12-14T16:10:24.069Z,18.90
2018-12-14T16:13:09.529Z,17.50
2018-12-14T16:15:46.904Z,19.53
2018-12-14T16:18:23.380Z,18.53
2018-12-14T16:21:00.715Z,17.87
2018-12-14T16:23:40.245Z,17.93
2018-12-14T16:26:16.655Z,17.80
2018-12-14T16:28:52.969Z,17.40
2018-12-14T16:31:29.772Z,16.23
2018-12-14T16:34:05.974Z,16.43
2018-12-14T16:36:43.215Z,16.90
2018-12-14T16:39:20.555Z,16.33
2018-12-14T16:41:59.339Z,17.80
2018-12-14T16:44:37.913Z,15.63
2018-12-14T16:47:14.612Z,17.47
2018-12-14T16:49:50.600Z,16.00
2018-12-14T16:52:27.618Z,17.53
2018-12-14T16:55:03.968Z,15.90
2018-12-14T16:57:41.440Z,17.40
2018-12-14T17:00:18.289Z,19.17
2018-12-14T17:02:58.529Z,17.60
2018-12-14T17:05:35.698Z,18.70
2018-12-14T17:08:12.466Z,18.57
2018-12-14T17:10:50.734Z,16.60
2018-12-14T17:13:30.920Z,18.47
2018-12-14T17:16:08.260Z,19.43
2018-12-14T17:18:44.813Z,16.23
2018-12-14T17:21:21.889Z,17.40
2018-12-14T17:23:58.029Z,18.50
2018-12-14T17:26:35.139Z,17.30
2018-12-14T17:29:11.712Z,17.50
2018-12-14T17:31:48.095Z,17.17
2018-12-14T17:34:24.683Z,18.87
2018-12-14T17:37:01.436Z,17.37
2018-12-14T17:39:37.745Z,17.70
2018-12-14T17:42:15.014Z,18.27
2018-12-14T17:49:56.998Z,17.90
2018-12-14T17:52:32.971Z,16.27
2018-12-14T17:55:09.023Z,17.57
2018-12-14T17:57:44.899Z,17.60
2018-12-14T18:00:21.135Z,18.30
2018-12-14T18:02:57.167Z,18.47
2018-12-14T18:05:33.377Z,18.27
2018-12-14T18:08:09.567Z,18.97
2018-12-14T18:10:47.537Z,15.90
2018-12-14T18:13:23.519Z,17.73
2018-12-14T18:16:01.493Z,16.60
2018-12-14T18:18:37.388Z,17.30
2018-12-14T18:21:13.721Z,18.20
2018-12-14T18:23:51.265Z,16.53
2018-12-14T18:26:28.592Z,19.07
2018-12-14T18:29:05.537Z,19.63
2018-12-14T18:31:41.778Z,18.30
2018-12-14T18:34:17.787Z,19.40
2018-12-14T18:36:53.869Z,17.77
2018-12-14T18:39:30.313Z,19.00
2018-12-14T18:42:07.316Z,19.80
2018-12-14T18:44:43.296Z,18.50
2018-12-14T18:47:19.555Z,18.37
2018-12-14T18:49:55.458Z,18.93
2018-12-14T18:52:31.505Z,20.53
2018-12-14T18:55:08.658Z,21.23
2018-12-14T18:57:45.114Z,18.57
2018-12-14T19:00:21.719Z,20.17
2018-12-14T19:02:58.971Z,20.13
2018-12-14T19:05:35.228Z,19.43
2018-12-14T19:08:11.322Z,19.63
2018-12-14T19:10:47.082Z,18.53
2018-12-14T19:13:23.127Z,19.20
2018-12-14T19:15:59.788Z,19.23
2018-12-14T19:18:36.272Z,20.63
2018-12-14T19:21:13.950Z,20.13
2018-12-14T19:23:50.230Z,20.00
2018-12-14T19:26:27.229Z,21.20
2018-12-14T19:29:03.667Z,19.70
2018-12-14T19:31:40.618Z,20.07
2018-12-14T19:34:17.096Z,19.60
2018-12-14T19:36:53.304Z,18.37
2018-12-14T19:39:30.687Z,20.77
2018-12-14T19:42:10.870Z,19.50
2018-12-14T19:44:47.545Z,18.67
2018-12-14T19:47:25.007Z,18.20
2018-12-14T19:50:02.483Z,19.00
2018-12-14T19:52:38.882Z,20.03
2018-12-14T19:55:16.208Z,19.67
2018-12-14T19:57:52.469Z,17.53
2018-12-14T20:00:28.723Z,18.57
2018-12-14T20:03:05.033Z,19.57
2018-12-14T20:05:43.972Z,18.07
2018-12-14T20:08:20.263Z,17.93
2018-12-14T20:10:56.571Z,17.70
2018-12-14T20:13:32.774Z,19.87
2018-12-14T20:16:12.725Z,19.23
2018-12-14T20:18:48.414Z,18.57
2018-12-14T20:21:26.948Z,19.73
2018-12-14T20:24:04.482Z,18.73
2018-12-14T20:26:41.844Z,18.37
2018-12-14T20:29:18.261Z,17.23
2018-12-14T20:31:55.573Z,17.03
2018-12-14T20:34:32.884Z,17.03
2018-12-14T20:37:10.370Z,17.60
2018-12-14T20:39:47.590Z,17.50
2018-12-14T20:42:23.836Z,19.20
2018-12-14T20:45:01.999Z,17.53
2018-12-14T20:47:39.486Z,18.30
2018-12-14T20:50:17.520Z,17.90
2018-12-14T20:52:54.866Z,19.33
2018-12-14T20:55:32.163Z,17.37
2018-12-14T20:58:08.477Z,19.60
2018-12-14T21:00:44.842Z,16.70
2018-12-14T21:03:21.070Z,18.83
2018-12-14T21:05:57.369Z,17.33
2018-12-14T21:08:33.355Z,18.40
2018-12-14T21:11:09.873Z,18.67
2018-12-14T21:13:46.143Z,17.20
2018-12-14T21:16:30.193Z,16.73
2018-12-14T21:19:06.464Z,17.93
2018-12-14T21:21:42.895Z,17.47
2018-12-14T21:24:19.033Z,18.90
2018-12-14T21:26:55.119Z,17.07
2018-12-14T21:29:32.897Z,17.00
2018-12-14T21:32:10.877Z,18.00
2018-12-14T21:34:48.816Z,17.20
2018-12-14T21:37:25.512Z,16.83
2018-12-14T21:40:01.898Z,17.20
2018-12-14T21:42:38.165Z,16.23
2018-12-14T21:45:14.534Z,16.57
2018-12-14T21:47:51.008Z,16.10
2018-12-14T21:50:27.269Z,18.20
2018-12-14T21:53:03.683Z,17.57
2018-12-14T21:55:39.761Z,18.53
2018-12-14T21:58:16.147Z,18.17
2018-12-14T22:00:53.674Z,15.50
2018-12-14T22:03:29.870Z,15.80
2018-12-14T22:06:06.216Z,16.37
2018-12-14T22:08:42.755Z,17.53
2018-12-14T22:11:18.907Z,17.90
2018-12-14T22:13:55.068Z,17.27
2018-12-14T22:16:39.187Z,16.50
2018-12-14T22:19:14.020Z,16.43
2018-12-14T22:21:50.097Z,15.73
2018-12-14T22:24:27.396Z,15.23
2018-12-14T22:27:03.551Z,16.03
2018-12-14T22:29:39.688Z,15.73
2018-12-14T22:32:16.253Z,15.70
2018-12-14T22:34:53.201Z,16.20
2018-12-14T22:37:29.492Z,14.77
2018-12-14T22:40:05.601Z,15.70
2018-12-14T22:42:42.691Z,16.13
2018-12-14T22:45:18.785Z,15.20
2018-12-14T22:47:54.775Z,14.37
2018-12-14T22:50:33.285Z,16.20
2018-12-14T22:53:09.515Z,15.40
2018-12-14T22:55:45.401Z,15.43
2018-12-14T22:58:21.421Z,15.87
2018-12-14T23:01:00.425Z,15.63
2018-12-14T23:03:37.633Z,15.10
2018-12-14T23:06:14.506Z,15.57
2018-12-14T23:08:50.623Z,15.87
2018-12-14T23:11:26.591Z,16.17
2018-12-14T23:14:05.405Z,15.60
2018-12-14T23:16:41.611Z,17.03
2018-12-14T23:19:17.917Z,14.23
2018-12-14T23:21:54.366Z,16.93
2018-12-14T23:24:30.337Z,17.50
2018-12-14T23:27:06.803Z,16.13
2018-12-14T23:29:43.962Z,17.37
2018-12-14T23:32:20.247Z,16.03
2018-12-14T23:34:58.345Z,13.77
2018-12-14T23:37:36.084Z,16.10
2018-12-14T23:40:13.463Z,18.17
2018-12-14T23:42:52.283Z,16.70
2018-12-14T23:45:33.622Z,15.73
2018-12-14T23:48:18.300Z,17.07
2018-12-14T23:50:56.920Z,15.03
2018-12-14T23:53:35.013Z,16.10
2018-12-14T23:56:13.033Z,16.03
2018-12-14T23:58:51.071Z,16.43
